Time;durP1;ratioP1;P1;durP2;ratioP2;P2;SDS_P1;SDS_P2;PMS_P1;PMS_P2;Temp;Humidity;BMP_temperature;BMP_pressure;BME280_temperature;BME280_humidity;BME280_pressure;Samples;Min_cycle;Max_cycle;Signal;HPM_P1;HPM_P2
2023/07/22 00:00:15;;;;;;;8.20;5.60;;;;;;;22.71;46.49;99997.61;108166;1253;60371;-69
2023/07/22 00:02:43;;;;;;;10.20;6.10;;;;;;;22.98;46.16;99993.23;108098;1253;73790;-68
2023/07/22 00:05:10;;;;;;;14.70;5.70;;;;;;;23.00;46.00;99991.14;108115;1252;70077;-68
2023/07/22 00:07:37;;;;;;;13.60;6.20;;;;;;;23.06;45.98;99987.48;108129;1253;70214;-69
2023/07/22 00:10:06;;;;;;;6.30;4.70;;;;;;;23.08;45.89;99989.80;108109;1257;60714;-68
2023/07/22 00:12:34;;;;;;;8.90;5.80;;;;;;;22.95;46.27;99986.32;108113;1253;60560;-68
2023/07/22 00:15:02;;;;;;;15.80;6.20;;;;;;;22.79;46.59;99987.73;108078;1253;73771;-68
2023/07/22 00:17:29;;;;;;;14.10;5.50;;;;;;;22.62;46.80;99991.85;108052;1252;70649;-67
2023/07/22 00:19:57;;;;;;;10.00;6.50;;;;;;;22.61;46.98;99992.81;108140;1252;73059;-68
2023/07/22 00:22:26;;;;;;;10.70;6.60;;;;;;;22.54;47.21;99990.25;108116;1252;61691;-68
2023/07/22 00:24:54;;;;;;;16.40;6.20;;;;;;;22.52;47.18;99984.67;108067;1253;59068;-69
2023/07/22 00:27:21;;;;;;;14.30;6.10;;;;;;;22.46;47.30;99981.85;108047;1253;72749;-70
2023/07/22 00:29:48;;;;;;;14.30;6.20;;;;;;;22.51;47.48;99977.46;108043;1253;69710;-66
2023/07/22 00:32:16;;;;;;;11.60;7.00;;;;;;;22.35;47.65;99974.14;107969;1253;71467;-69
2023/07/22 00:34:43;;;;;;;14.80;7.60;;;;;;;22.32;48.00;99966.60;107953;1253;63879;-68
2023/07/22 00:37:11;;;;;;;11.10;6.50;;;;;;;22.31;48.08;99962.00;107982;1253;60330;-68
2023/07/22 00:39:38;;;;;;;13.30;6.70;;;;;;;22.37;47.75;99958.40;108018;1253;73277;-69
2023/07/22 00:42:08;;;;;;;11.10;6.10;;;;;;;22.39;47.78;99953.23;108045;1253;70455;-66
2023/07/22 00:44:36;;;;;;;10.90;6.00;;;;;;;22.38;47.82;99946.34;108027;1254;72674;-67
2023/07/22 00:47:04;;;;;;;11.90;6.60;;;;;;;22.32;47.77;99946.52;108066;1257;61695;-68
2023/07/22 00:49:32;;;;;;;10.40;6.60;;;;;;;22.18;47.90;99940.66;107986;1253;61523;-67
2023/07/22 00:52:01;;;;;;;14.00;6.80;;;;;;;22.20;47.94;99936.02;108096;1253;73837;-69
2023/07/22 00:54:30;;;;;;;13.20;7.00;;;;;;;22.22;48.12;99932.19;108044;1253;70258;-69
2023/07/22 00:56:58;;;;;;;13.70;6.60;;;;;;;22.19;48.11;99931.95;107958;1253;72660;-68
2023/07/22 00:59:26;;;;;;;12.90;7.10;;;;;;;22.23;48.26;99928.45;107984;1253;61704;-68
2023/07/22 01:01:53;;;;;;;15.80;6.60;;;;;;;22.30;48.08;99929.74;107889;1253;60278;-68
2023/07/22 01:04:22;;;;;;;15.50;7.00;;;;;;;22.33;48.25;99936.84;108000;1253;73904;-69
2023/07/22 01:06:49;;;;;;;9.20;6.60;;;;;;;22.47;47.82;99942.90;107967;1253;68702;-69
2023/07/22 01:09:17;;;;;;;11.80;6.30;;;;;;;22.43;48.14;99944.91;107949;1253;71671;-68
2023/07/22 01:11:44;;;;;;;11.00;6.50;;;;;;;22.46;48.16;99946.05;108016;1253;60494;-69
2023/07/22 01:14:11;;;;;;;9.00;6.10;;;;;;;22.48;48.37;99950.35;107987;1253;60198;-68
2023/07/22 01:16:39;;;;;;;13.70;6.50;;;;;;;22.52;48.74;99952.86;107917;1253;73808;-68
2023/07/22 01:19:08;;;;;;;10.20;6.60;;;;;;;22.40;49.01;99953.05;108053;1253;68928;-67
2023/07/22 01:21:35;;;;;;;11.20;6.50;;;;;;;22.34;49.45;99952.42;107972;1253;71433;-68
2023/07/22 01:24:04;;;;;;;9.40;7.00;;;;;;;22.48;49.36;99952.84;107791;1253;61683;-69
2023/07/22 01:26:31;;;;;;;10.40;7.40;;;;;;;22.42;49.49;99958.73;108043;1253;59566;-68
2023/07/22 01:29:05;;;;;;;11.10;7.10;;;;;;;22.43;49.53;99960.95;108064;1253;73871;-67
2023/07/22 01:31:35;;;;;;;18.50;8.40;;;;;;;22.51;49.41;99965.83;107928;1253;69486;-68
2023/07/22 01:34:03;;;;;;;12.70;7.80;;;;;;;22.50;49.44;99968.63;107955;1253;71467;-65
2023/07/22 01:36:32;;;;;;;12.30;7.80;;;;;;;22.66;49.15;99964.60;108052;1254;60499;-69
2023/07/22 01:39:00;;;;;;;13.80;8.00;;;;;;;22.70;49.00;99964.46;107928;1253;60284;-68
2023/07/22 01:41:28;;;;;;;11.60;7.70;;;;;;;22.64;49.14;99963.88;108054;1253;73784;-68
2023/07/22 01:43:55;;;;;;;16.60;8.00;;;;;;;22.78;48.89;99966.20;108011;1258;72206;-68
2023/07/22 01:46:23;;;;;;;12.50;7.90;;;;;;;22.76;48.90;99972.10;107964;1253;72171;-67
2023/07/22 01:48:50;;;;;;;14.70;8.60;;;;;;;22.74;49.09;99965.17;107753;1253;60442;-68
2023/07/22 01:51:17;;;;;;;12.90;7.70;;;;;;;22.71;49.11;99956.27;107977;1253;60359;-69
2023/07/22 01:53:45;;;;;;;13.10;7.30;;;;;;;22.67;49.17;99949.91;108129;1253;73185;-68
2023/07/22 01:56:13;;;;;;;12.00;7.80;;;;;;;22.77;48.96;99952.86;107966;1253;70288;-68
2023/07/22 01:58:40;;;;;;;12.30;7.60;;;;;;;22.74;48.94;99956.59;107907;1253;72461;-68
2023/07/22 02:01:11;;;;;;;11.30;6.60;;;;;;;23.04;48.45;99956.33;107950;1258;61696;-69
2023/07/22 02:03:40;;;;;;;12.60;7.60;;;;;;;23.32;47.72;99958.30;108128;1253;60405;-67
2023/07/22 02:06:08;;;;;;;13.30;6.90;;;;;;;23.31;47.48;99953.70;108128;1253;73000;-70
2023/07/22 02:08:36;;;;;;;14.80;6.90;;;;;;;23.00;48.04;99953.54;107917;1253;70301;-68
2023/07/22 02:11:05;;;;;;;14.10;6.60;;;;;;;22.79;48.35;99956.30;107957;1254;72851;-67
2023/07/22 02:13:33;;;;;;;10.20;5.80;;;;;;;22.72;48.49;99957.44;108007;1258;61673;-68
2023/07/22 02:16:01;;;;;;;10.90;6.60;;;;;;;22.68;48.96;99954.27;108000;1258;60296;-68
2023/07/22 02:18:29;;;;;;;11.50;6.40;;;;;;;22.69;49.09;99957.73;108036;1253;73863;-69
2023/07/22 02:20:56;;;;;;;14.20;7.40;;;;;;;22.71;49.07;99955.91;108040;1253;70216;-70
2023/07/22 02:23:24;;;;;;;17.00;8.10;;;;;;;22.74;49.08;99954.55;108080;1257;72843;-68
2023/07/22 02:25:52;;;;;;;19.30;7.70;;;;;;;22.75;49.04;99953.20;108117;1252;61648;-69
2023/07/22 02:28:21;;;;;;;12.80;7.40;;;;;;;22.80;48.94;99956.40;108134;1252;60309;-68
2023/07/22 02:30:50;;;;;;;15.20;6.00;;;;;;;22.74;48.96;99966.17;108163;1253;73875;-68
2023/07/22 02:33:17;;;;;;;10.30;6.50;;;;;;;22.74;49.04;99962.63;108051;1253;69019;-69
2023/07/22 02:35:45;;;;;;;13.80;7.30;;;;;;;22.79;49.02;99967.00;108088;1253;71796;-69
2023/07/22 02:38:14;;;;;;;10.00;6.20;;;;;;;22.97;48.59;99966.89;107979;1253;61691;-70
2023/07/22 02:40:41;;;;;;;14.40;7.70;;;;;;;23.03;48.64;99966.16;108168;1253;60330;-69
2023/07/22 02:43:10;;;;;;;14.00;7.60;;;;;;;22.66;49.37;99968.76;108160;1253;72340;-67
2023/07/22 02:45:38;;;;;;;9.50;6.50;;;;;;;22.61;49.64;99966.48;108262;1252;69043;-68
2023/07/22 02:48:05;;;;;;;13.60;7.50;;;;;;;22.88;49.29;99974.22;108123;1253;72648;-70
2023/07/22 02:50:33;;;;;;;9.30;6.20;;;;;;;23.00;49.15;99973.96;108186;1253;60516;-68
2023/07/22 02:53:01;;;;;;;16.00;8.00;;;;;;;23.05;49.26;99974.14;108019;1253;60447;-70
2023/07/22 02:55:28;;;;;;;15.70;7.90;;;;;;;23.03;49.56;99978.13;108153;1252;73818;-68
2023/07/22 02:57:55;;;;;;;14.20;7.60;;;;;;;23.16;49.47;99972.23;107946;1253;68701;-68
2023/07/22 03:00:25;;;;;;;13.60;7.80;;;;;;;23.23;49.42;99974.31;108068;1253;72623;-68
2023/07/22 03:02:55;;;;;;;11.50;7.20;;;;;;;23.39;49.04;99977.11;108129;1253;61889;-69
2023/07/22 03:05:25;;;;;;;10.90;7.50;;;;;;;23.63;48.88;99965.60;107960;1253;60305;-67
2023/07/22 03:07:53;;;;;;;12.30;7.60;;;;;;;23.81;48.61;99964.09;108136;1253;72586;-69
2023/07/22 03:10:20;;;;;;;11.70;7.00;;;;;;;23.80;48.60;99964.86;108214;1253;69970;-69
2023/07/22 03:12:48;;;;;;;15.90;7.50;;;;;;;23.98;48.36;99961.20;108087;1253;75074;-69
2023/07/22 03:15:16;;;;;;;12.70;7.00;;;;;;;24.08;48.15;99965.04;108138;1252;60444;-68
2023/07/22 03:20:23;;;;;;;13.00;7.30;;;;;;;21.80;53.95;99967.42;104951;1290;600126;-68
2023/07/22 03:22:50;;;;;;;13.90;6.90;;;;;;;22.91;51.05;99962.94;107333;1264;62000;-70
2023/07/22 03:25:20;;;;;;;13.30;7.10;;;;;;;23.06;50.84;99961.59;107225;1267;60016;-70
2023/07/22 03:27:47;;;;;;;10.00;6.90;;;;;;;23.13;50.49;99964.80;107190;1265;72312;-69
2023/07/22 03:30:17;;;;;;;13.50;6.50;;;;;;;23.15;50.69;99958.78;107870;1254;70333;-70
2023/07/22 03:32:45;;;;;;;12.90;7.30;;;;;;;23.26;50.54;99958.27;107894;1255;72950;-69
2023/07/22 03:35:13;;;;;;;13.40;7.80;;;;;;;23.43;50.21;99955.11;107959;1254;272250;-69
2023/07/22 03:37:40;;;;;;;11.50;7.30;;;;;;;23.36;50.40;99956.65;108213;1252;60028;-66
2023/07/22 03:40:30;;;;;;;18.80;7.70;;;;;;;23.28;50.67;99954.16;108130;1253;71537;-66
2023/07/22 03:42:57;;;;;;;11.20;7.50;;;;;;;23.31;50.63;99944.40;108141;1253;70618;-69
2023/07/22 03:45:25;;;;;;;9.80;6.10;;;;;;;23.27;50.93;99944.23;108155;1254;71402;-69
2023/07/22 03:47:57;;;;;;;10.30;7.30;;;;;;;23.41;50.80;99937.39;108091;1254;61756;-69
2023/07/22 03:50:25;;;;;;;9.60;6.70;;;;;;;23.52;50.62;99934.86;108074;1253;59994;-69
2023/07/22 03:52:53;;;;;;;13.40;7.20;;;;;;;23.59;50.59;99930.83;108067;1257;71394;-70
2023/07/22 03:55:20;;;;;;;14.40;8.00;;;;;;;23.79;50.28;99933.97;108037;1253;68936;-68
2023/07/22 03:57:50;;;;;;;14.10;7.10;;;;;;;23.91;50.06;99943.73;108221;1253;72762;-69
2023/07/22 04:00:18;;;;;;;11.40;7.30;;;;;;;23.77;50.46;99942.95;107952;1252;60547;-69
2023/07/22 04:02:45;;;;;;;9.90;6.60;;;;;;;23.81;50.35;99945.41;108103;1256;60390;-69
2023/07/22 04:05:12;;;;;;;10.60;6.80;;;;;;;23.87;50.33;99946.66;107804;1253;73050;-70
2023/07/22 04:07:40;;;;;;;12.70;6.90;;;;;;;23.91;50.46;99949.36;107922;1254;70027;-69
2023/07/22 04:10:07;;;;;;;11.00;6.00;;;;;;;24.01;50.10;99949.64;107992;1253;72114;-69
2023/07/22 04:12:34;;;;;;;10.80;7.30;;;;;;;24.06;50.04;99949.27;108044;1252;60870;-67
2023/07/22 04:15:03;;;;;;;12.10;7.10;;;;;;;24.17;49.65;99941.10;107961;1252;59965;-68
2023/07/22 04:17:31;;;;;;;8.60;5.70;;;;;;;24.30;49.53;99943.21;108077;1253;73099;-69
2023/07/22 04:19:58;;;;;;;15.80;6.50;;;;;;;24.41;49.16;99940.29;108132;1252;70634;-69
2023/07/22 04:22:26;;;;;;;12.40;7.50;;;;;;;24.44;49.36;99937.70;108050;1254;72619;-68
2023/07/22 04:24:53;;;;;;;9.60;6.30;;;;;;;24.57;49.28;99940.80;108098;1254;60752;-69
2023/07/22 04:27:21;;;;;;;10.60;6.60;;;;;;;24.65;48.85;99939.44;108010;1259;59590;-70
2023/07/22 04:29:48;;;;;;;11.10;6.10;;;;;;;24.89;48.30;99936.14;108044;1254;72327;-69
2023/07/22 04:32:16;;;;;;;9.10;6.40;;;;;;;25.04;47.76;99928.20;108035;1253;70487;-69
2023/07/22 04:34:43;;;;;;;12.40;6.60;;;;;;;25.17;47.31;99923.84;108040;1254;71393;-69
2023/07/22 04:37:10;;;;;;;8.50;4.90;;;;;;;25.24;47.29;99924.19;107928;1254;61613;-70
2023/07/22 04:39:38;;;;;;;10.10;5.80;;;;;;;25.42;46.74;99919.88;108103;1254;59964;-70
2023/07/22 04:42:06;;;;;;;6.80;5.70;;;;;;;25.48;46.26;99919.84;108040;1254;73055;-68
2023/07/22 04:44:33;;;;;;;8.40;5.40;;;;;;;25.71;46.01;99919.61;108073;1254;70304;-69
2023/07/22 04:47:01;;;;;;;8.90;4.80;;;;;;;25.77;45.70;99920.70;108053;1254;72590;-71
2023/07/22 04:49:28;;;;;;;8.00;4.70;;;;;;;25.90;44.62;99917.95;108078;1254;60430;-69
2023/07/22 04:51:57;;;;;;;6.90;4.30;;;;;;;26.03;43.64;99908.54;108054;1254;60023;-69
2023/07/22 04:54:28;;;;;;;6.40;4.20;;;;;;;26.09;43.05;99908.95;108027;1253;72519;-68
2023/07/22 04:56:55;;;;;;;6.90;4.10;;;;;;;26.33;43.12;99905.71;107983;1253;70710;-69
2023/07/22 04:59:24;;;;;;;7.50;4.20;;;;;;;26.47;43.34;99901.14;108063;1254;73151;-68
2023/07/22 05:01:52;;;;;;;8.20;4.30;;;;;;;26.52;43.02;99903.63;107963;1254;61698;-69
2023/07/22 05:04:19;;;;;;;7.50;4.60;;;;;;;26.58;42.99;99907.98;108065;1254;60023;-68
2023/07/22 05:06:47;;;;;;;7.80;4.60;;;;;;;26.33;43.21;99907.31;108064;1254;71758;-69
2023/07/22 05:09:14;;;;;;;6.30;4.50;;;;;;;26.28;43.76;99911.77;108072;1254;68793;-67
2023/07/22 05:11:41;;;;;;;8.40;5.30;;;;;;;26.33;43.63;99910.38;108068;1254;71221;-68
2023/07/22 05:14:09;;;;;;;6.10;4.30;;;;;;;26.15;44.18;99916.96;108058;1254;60399;-68
2023/07/22 05:16:36;;;;;;;7.40;4.70;;;;;;;26.17;44.14;99916.59;108114;1253;60641;-70
2023/07/22 05:19:05;;;;;;;6.90;4.80;;;;;;;26.20;44.30;99927.07;108131;1253;72150;-70
2023/07/22 05:21:32;;;;;;;6.80;5.00;;;;;;;26.18;44.71;99927.83;108006;1254;69959;-70
2023/07/22 05:24:00;;;;;;;10.90;5.30;;;;;;;26.40;44.36;99932.16;107887;1256;72587;-70
2023/07/22 05:26:27;;;;;;;7.20;5.40;;;;;;;26.36;44.41;99931.61;107799;1256;62145;-70
2023/07/22 05:28:55;;;;;;;7.90;5.60;;;;;;;26.47;44.43;99933.58;107781;1256;60503;-70
2023/07/22 05:31:22;;;;;;;8.40;5.30;;;;;;;26.51;44.45;99927.33;107785;1256;71730;-70
2023/07/22 05:33:49;;;;;;;7.10;5.30;;;;;;;26.46;44.43;99921.38;107807;1256;70293;-72
2023/07/22 05:36:17;;;;;;;7.00;5.40;;;;;;;26.42;44.37;99917.73;107828;1256;72639;-69
2023/07/22 05:38:44;;;;;;;7.00;5.20;;;;;;;26.51;44.31;99921.37;107855;1256;60420;-69
2023/07/22 05:41:12;;;;;;;9.70;4.70;;;;;;;26.50;44.29;99918.02;107820;1256;60046;-70
2023/07/22 05:43:39;;;;;;;10.10;5.40;;;;;;;26.34;44.75;99917.88;107876;1260;72717;-70
2023/07/22 05:46:06;;;;;;;6.20;4.20;;;;;;;26.42;44.66;99921.98;107971;1256;69967;-71
2023/07/22 05:48:34;;;;;;;9.60;5.30;;;;;;;26.46;44.58;99921.02;107914;1256;74772;-70
2023/07/22 05:51:02;;;;;;;7.70;4.60;;;;;;;26.54;44.67;99921.77;107897;1257;61604;-69
2023/07/22 05:53:29;;;;;;;16.70;5.80;;;;;;;26.54;44.78;99924.66;107894;1256;59968;-69
2023/07/22 05:55:56;;;;;;;15.20;5.40;;;;;;;26.59;44.57;99924.88;107866;1256;73235;-70
2023/07/22 05:58:24;;;;;;;17.00;5.50;;;;;;;26.48;44.62;99923.16;107959;1255;68850;-69
2023/07/22 06:00:53;;;;;;;12.20;6.10;;;;;;;26.62;44.34;99920.82;107832;1256;72801;-69
2023/07/22 06:03:21;;;;;;;9.30;5.20;;;;;;;26.76;44.02;99925.44;107704;1255;61773;-68
2023/07/22 06:05:48;;;;;;;8.00;5.30;;;;;;;26.84;44.04;99932.17;107718;1256;60244;-70
2023/07/22 06:08:16;;;;;;;8.50;5.20;;;;;;;26.96;43.90;99942.61;107831;1255;72408;-69
2023/07/22 06:10:43;;;;;;;7.60;5.00;;;;;;;27.00;44.09;99944.90;107865;1255;70517;-66
2023/07/22 06:13:11;;;;;;;8.20;4.80;;;;;;;27.07;44.30;99947.86;107946;1255;72204;-70
2023/07/22 06:15:38;;;;;;;7.10;4.90;;;;;;;27.12;44.15;99954.88;107865;1260;61024;-72
2023/07/22 06:18:09;;;;;;;6.80;4.40;;;;;;;26.93;45.02;99957.94;107880;1256;59077;-70
2023/07/22 06:20:36;;;;;;;8.60;5.00;;;;;;;26.79;45.10;99961.98;107957;1253;73040;-71
2023/07/22 06:23:04;;;;;;;6.20;4.60;;;;;;;26.72;45.49;99956.29;108042;1253;69792;-69
2023/07/22 06:25:31;;;;;;;18.40;5.00;;;;;;;26.57;45.90;99960.23;108007;1254;72765;-70
2023/07/22 06:27:58;;;;;;;12.70;5.10;;;;;;;26.67;45.50;99960.92;108073;1254;60414;-71
2023/07/22 06:30:26;;;;;;;7.20;4.60;;;;;;;26.70;45.82;99956.65;108080;1253;60267;-69
2023/07/22 06:32:53;;;;;;;6.60;4.40;;;;;;;26.67;45.87;99962.25;108079;1253;72361;-70
2023/07/22 06:35:21;;;;;;;13.00;5.40;;;;;;;26.57;45.96;99955.15;108115;1254;70355;-70
2023/07/22 06:37:48;;;;;;;11.50;5.00;;;;;;;26.50;46.29;99955.83;108050;1255;71925;-69
2023/07/22 06:40:15;;;;;;;8.40;5.20;;;;;;;26.48;46.45;99955.39;108027;1253;60569;-71
2023/07/22 06:42:43;;;;;;;6.90;4.90;;;;;;;26.26;46.87;99947.64;108074;1252;60090;-70
2023/07/22 06:45:11;;;;;;;5.80;4.60;;;;;;;26.06;47.34;99954.23;108101;1254;71856;-71
2023/07/22 06:47:39;;;;;;;10.20;4.90;;;;;;;26.04;47.63;99955.73;108037;1254;69946;-70
2023/07/22 06:50:06;;;;;;;5.60;4.20;;;;;;;26.13;47.95;99957.77;108059;1254;71517;-70
2023/07/22 06:52:34;;;;;;;6.00;4.60;;;;;;;26.16;47.90;99963.96;108125;1256;61816;-70
2023/07/22 06:55:01;;;;;;;6.80;4.40;;;;;;;26.16;47.96;99971.55;108082;1252;59962;-71
2023/07/22 06:57:29;;;;;;;6.00;4.40;;;;;;;26.05;48.55;99976.45;108062;1254;73167;-70
2023/07/22 06:59:56;;;;;;;6.40;4.40;;;;;;;25.85;49.10;99975.81;108066;1257;70331;-70
2023/07/22 07:02:24;;;;;;;8.20;4.70;;;;;;;25.70;49.56;99978.12;108090;1252;72686;-71
2023/07/22 07:04:51;;;;;;;6.60;4.20;;;;;;;25.82;49.31;99977.10;108094;1254;61817;-70
2023/07/22 07:07:19;;;;;;;6.90;5.00;;;;;;;25.73;49.95;99976.20;108129;1253;60049;-71
2023/07/22 07:09:46;;;;;;;6.40;4.40;;;;;;;25.70;50.11;99982.20;108113;1259;73097;-71
2023/07/22 07:12:14;;;;;;;9.80;5.00;;;;;;;25.55;51.07;99985.17;108075;1254;70102;-71
2023/07/22 07:14:41;;;;;;;6.60;5.20;;;;;;;25.52;51.49;99986.73;108058;1256;72934;-71
2023/07/22 07:17:08;;;;;;;9.50;5.40;;;;;;;25.68;51.03;99990.55;108015;1254;61650;-70
2023/07/22 07:19:36;;;;;;;6.40;5.60;;;;;;;25.73;51.04;99991.46;108112;1253;60039;-70
2023/07/22 07:22:03;;;;;;;11.80;5.40;;;;;;;25.70;51.26;99995.32;108019;1254;73053;-70
2023/07/22 07:24:30;;;;;;;7.60;5.10;;;;;;;25.80;51.09;99995.30;108074;1253;70795;-70
2023/07/22 07:26:58;;;;;;;7.60;4.90;;;;;;;25.67;51.49;99991.02;108032;1254;72887;-71
2023/07/22 07:29:25;;;;;;;8.40;5.80;;;;;;;25.36;52.75;99992.16;108048;1252;61794;-71
2023/07/22 07:32:13;;;;;;;7.40;5.60;;;;;;;25.53;52.42;99991.36;108048;1253;62739;-71
2023/07/22 07:34:40;;;;;;;11.50;6.40;;;;;;;25.49;52.84;99988.70;108081;1252;73194;-71
2023/07/22 07:37:08;;;;;;;12.50;6.10;;;;;;;25.66;52.45;99991.48;108097;1254;70271;-71
2023/07/22 07:39:35;;;;;;;7.90;6.10;;;;;;;25.78;52.09;99993.29;108079;1254;71619;-70
2023/07/22 07:42:04;;;;;;;8.70;5.70;;;;;;;25.63;52.66;99992.34;108054;1254;60989;-72
2023/07/22 07:44:31;;;;;;;7.10;5.80;;;;;;;25.67;52.28;99989.39;107991;1254;60424;-72
2023/07/22 07:46:59;;;;;;;8.30;5.80;;;;;;;25.63;52.43;99988.70;108036;1254;72667;-70
2023/07/22 07:49:27;;;;;;;9.60;5.90;;;;;;;25.49;52.70;99991.21;108059;1254;70567;-70
2023/07/22 07:51:54;;;;;;;8.40;5.20;;;;;;;25.59;52.45;99990.16;108089;1254;72459;-71
2023/07/22 07:54:23;;;;;;;11.00;6.40;;;;;;;25.46;52.85;99987.27;108068;1253;60390;-71
2023/07/22 07:56:51;;;;;;;7.40;5.50;;;;;;;25.52;52.87;99981.07;107999;1253;60441;-71
2023/07/22 07:59:18;;;;;;;8.80;6.60;;;;;;;25.46;53.17;99979.70;108063;1254;74141;-69
2023/07/22 08:01:46;;;;;;;12.90;6.10;;;;;;;25.27;53.70;99982.16;108070;1253;70193;-70
2023/07/22 08:04:13;;;;;;;9.20;6.00;;;;;;;25.44;53.29;99977.02;107967;1256;71476;-69
2023/07/22 08:06:40;;;;;;;9.20;5.90;;;;;;;25.48;53.39;99974.60;108030;1253;61729;-71
2023/07/22 08:09:10;;;;;;;9.50;6.10;;;;;;;25.77;52.77;99973.46;107924;1254;58748;-70
2023/07/22 08:11:38;;;;;;;9.60;6.40;;;;;;;26.00;52.25;99969.67;108034;1254;73973;-71
2023/07/22 08:14:05;;;;;;;7.80;5.40;;;;;;;25.96;52.42;99962.67;108042;1254;68846;-71
2023/07/22 08:16:33;;;;;;;7.60;5.60;;;;;;;25.65;53.19;99962.28;108031;1253;71471;-70
2023/07/22 08:19:00;;;;;;;7.70;5.90;;;;;;;25.93;52.67;99955.57;108003;1258;60733;-71
2023/07/22 08:21:28;;;;;;;10.00;7.20;;;;;;;26.18;52.24;99951.55;108124;1253;59019;-69
2023/07/22 08:23:56;;;;;;;7.80;6.00;;;;;;;26.24;51.85;99948.95;108051;1258;73874;-70
2023/07/22 08:26:24;;;;;;;9.50;5.60;;;;;;;26.37;51.56;99951.29;108015;1254;69462;-70
2023/07/22 08:28:52;;;;;;;7.40;6.20;;;;;;;26.33;51.49;99952.52;108032;1254;72680;-70
2023/07/22 08:31:19;;;;;;;8.50;6.10;;;;;;;26.26;51.53;99954.31;107786;1256;60625;-70
2023/07/22 08:33:47;;;;;;;10.30;6.30;;;;;;;26.20;51.66;99956.69;108041;1254;60284;-70
2023/07/22 08:36:14;;;;;;;8.50;6.20;;;;;;;26.30;51.50;99959.66;108020;1254;74129;-69
2023/07/22 08:38:42;;;;;;;8.80;5.50;;;;;;;26.19;51.45;99967.48;108093;1256;69211;-68
2023/07/22 08:41:14;;;;;;;9.10;5.50;;;;;;;25.94;51.98;99965.09;107731;1256;72755;-67
2023/07/22 08:43:41;;;;;;;6.40;5.00;;;;;;;26.15;51.54;99964.99;107736;1256;61670;-67
2023/07/22 08:46:09;;;;;;;8.60;5.60;;;;;;;26.21;51.44;99961.89;107743;1256;60333;-69
2023/07/22 08:48:37;;;;;;;8.70;5.60;;;;;;;26.19;51.37;99957.77;107677;1261;73982;-68
2023/07/22 08:51:10;;;;;;;9.00;6.20;;;;;;;26.43;50.91;99949.66;107548;1257;70085;-68
2023/07/22 08:53:37;;;;;;;9.40;6.00;;;;;;;26.61;50.31;99955.45;107850;1257;72421;-68
2023/07/22 08:56:05;;;;;;;8.40;5.80;;;;;;;26.64;50.38;99949.89;107903;1256;60338;-67
2023/07/22 08:58:33;;;;;;;9.00;5.90;;;;;;;26.72;50.16;99948.42;107685;1256;60307;-69
2023/07/22 09:01:00;;;;;;;9.10;5.70;;;;;;;26.85;49.68;99942.02;107845;1256;73840;-68
2023/07/22 09:03:28;;;;;;;9.50;5.80;;;;;;;27.01;49.55;99934.20;107592;1256;70054;-66
2023/07/22 09:05:55;;;;;;;6.30;5.10;;;;;;;26.86;49.84;99939.27;107759;1260;71454;-67
2023/07/22 09:08:23;;;;;;;7.30;5.00;;;;;;;26.63;50.10;99935.39;107603;1256;61723;-68
2023/07/22 09:10:50;;;;;;;8.70;4.90;;;;;;;26.61;50.32;99937.44;107638;1256;60055;-68
2023/07/22 09:13:18;;;;;;;7.70;5.70;;;;;;;26.58;50.42;99939.02;107551;1256;74299;-68
2023/07/22 09:15:47;;;;;;;6.40;4.90;;;;;;;26.48;50.45;99937.96;107669;1256;70315;-67
2023/07/22 09:18:16;;;;;;;8.60;6.00;;;;;;;26.50;50.31;99937.55;107670;1256;71486;-67
2023/07/22 09:20:43;;;;;;;13.60;5.70;;;;;;;26.36;50.65;99943.66;107659;1259;61693;-67
2023/07/22 09:23:11;;;;;;;9.60;5.50;;;;;;;26.13;51.13;99938.88;107772;1262;60289;-66
2023/07/22 09:25:41;;;;;;;7.60;5.10;;;;;;;26.23;51.02;99931.04;107689;1256;74117;-67
2023/07/22 09:28:09;;;;;;;8.30;5.20;;;;;;;25.99;51.56;99932.73;107934;1256;71457;-68
2023/07/22 09:30:38;;;;;;;6.60;5.50;;;;;;;26.00;51.34;99930.39;107872;1257;72902;-67
2023/07/22 09:33:08;;;;;;;8.90;5.50;;;;;;;25.96;51.20;99923.86;107909;1257;60392;-68
2023/07/22 09:35:42;;;;;;;10.90;6.00;;;;;;;26.10;50.96;99908.14;107941;1256;60788;-67
2023/07/22 09:38:10;;;;;;;6.90;5.20;;;;;;;26.06;51.19;99906.06;107951;1256;73706;-68
2023/07/22 09:40:42;;;;;;;12.60;5.90;;;;;;;26.08;51.06;99898.10;107980;1257;71185;-66
2023/07/22 09:43:12;;;;;;;9.80;6.10;;;;;;;26.10;51.24;99902.70;107674;1256;71939;-66
2023/07/22 09:45:40;;;;;;;9.20;6.20;;;;;;;25.99;51.70;99901.20;107923;1256;61832;-66
2023/07/22 09:48:09;;;;;;;8.80;6.70;;;;;;;26.07;51.45;99901.55;107668;1257;60394;-68
2023/07/22 09:50:38;;;;;;;8.00;6.30;;;;;;;26.22;51.01;99901.70;107777;1256;73832;-66
2023/07/22 09:53:08;;;;;;;;;;;;;;;26.24;51.08;99899.49;107779;1256;69092;-69
2023/07/22 09:55:36;;;;;;;8.70;5.60;;;;;;;26.02;51.64;99901.25;107903;1256;72899;-67
2023/07/22 09:58:10;;;;;;;7.20;6.00;;;;;;;26.26;51.14;99899.76;107839;1256;62516;-66
2023/07/22 10:00:42;;;;;;;7.50;5.90;;;;;;;26.16;51.36;99894.36;107909;1256;60919;-69
2023/07/22 10:03:10;;;;;;;6.30;5.30;;;;;;;26.01;51.68;99897.24;107824;1256;72590;-67
2023/07/22 10:05:41;;;;;;;8.80;5.70;;;;;;;26.03;51.52;99900.20;107938;1256;72032;-68
2023/07/22 10:08:09;;;;;;;7.70;5.80;;;;;;;26.22;51.03;99894.26;107553;1256;72874;-66
2023/07/22 10:10:38;;;;;;;9.10;6.30;;;;;;;26.36;50.86;99892.44;107748;1256;61864;-68
2023/07/22 10:13:06;;;;;;;8.80;6.10;;;;;;;25.97;51.73;99887.70;107809;1256;60025;-67
2023/07/22 10:15:34;;;;;;;6.90;6.00;;;;;;;26.00;51.66;99881.15;107949;1257;72783;-69
2023/07/22 10:18:03;;;;;;;7.90;5.50;;;;;;;25.99;51.68;99878.88;107669;1257;70623;-69
2023/07/22 10:20:34;;;;;;;12.20;7.30;;;;;;;25.78;52.18;99870.33;107698;1258;72757;-70
2023/07/22 10:23:01;;;;;;;6.30;5.30;;;;;;;25.74;52.42;99873.94;107653;1257;60533;-69
2023/07/22 10:25:29;;;;;;;7.40;5.60;;;;;;;25.64;52.54;99876.80;107650;1256;60352;-71
2023/07/22 10:27:56;;;;;;;8.00;5.90;;;;;;;25.55;52.65;99872.90;107472;1256;76287;-70
2023/07/22 10:30:24;;;;;;;6.40;5.70;;;;;;;25.33;53.13;99876.74;107707;1256;70320;-70
2023/07/22 10:32:52;;;;;;;9.00;5.80;;;;;;;25.32;53.26;99877.59;107706;1256;72721;-70
2023/07/22 10:35:44;;;;;;;7.50;5.90;;;;;;;25.37;53.20;99876.91;107744;1256;61657;-70
2023/07/22 10:38:15;;;;;;;8.90;5.50;;;;;;;25.39;53.13;99868.05;107845;1256;60490;-70
2023/07/22 10:40:53;;;;;;;8.20;6.30;;;;;;;25.44;53.08;99861.29;107725;1256;73805;-70
2023/07/22 10:43:27;;;;;;;7.00;5.90;;;;;;;25.43;53.48;99850.94;107754;1256;70417;-69
2023/07/22 10:45:56;;;;;;;10.10;6.20;;;;;;;25.45;53.52;99842.31;107747;1257;71476;-71
2023/07/22 10:48:28;;;;;;;8.80;6.20;;;;;;;25.43;53.51;99839.20;107651;1259;61865;-71
2023/07/22 10:51:04;;;;;;;6.70;5.50;;;;;;;25.36;53.53;99833.30;107678;1257;59204;-69
2023/07/22 10:53:31;;;;;;;8.50;6.80;;;;;;;25.45;53.44;99832.95;107686;1257;72636;-71
2023/07/22 10:56:06;;;;;;;13.10;7.70;;;;;;;25.52;53.46;99828.84;107656;1258;68858;-71
2023/07/22 10:58:56;;;;;;;9.80;6.90;;;;;;;25.37;53.79;99830.38;107544;1259;72782;-68
2023/07/22 11:01:27;;;;;;;12.80;7.10;;;;;;;25.26;54.14;99811.74;107639;1259;60413;-69
2023/07/22 11:04:06;;;;;;;8.50;6.70;;;;;;;25.41;54.01;99805.71;107626;1262;61093;-70
2023/07/22 11:06:34;;;;;;;9.50;7.20;;;;;;;25.62;53.69;99807.42;107636;1257;72732;-69
2023/07/22 11:09:03;;;;;;;9.70;5.80;;;;;;;25.44;53.82;99804.83;107705;1262;70817;-69
2023/07/22 11:11:36;;;;;;;7.20;6.00;;;;;;;25.53;53.59;99807.62;107676;1259;72614;-69
2023/07/22 11:14:22;;;;;;;7.30;6.00;;;;;;;25.42;53.59;99803.05;107648;1257;60426;-70
2023/07/22 11:16:49;;;;;;;6.90;5.40;;;;;;;25.30;53.78;99810.18;107724;1257;60453;-69
2023/07/22 11:19:18;;;;;;;5.60;5.00;;;;;;;25.39;53.39;99807.18;107722;1257;73837;-69
2023/07/22 11:21:46;;;;;;;7.20;5.30;;;;;;;25.42;53.32;99801.40;107687;1259;70287;-69
2023/07/22 11:24:15;;;;;;;7.00;5.10;;;;;;;25.29;53.43;99805.29;107818;1258;72635;-71
2023/07/22 11:26:42;;;;;;;7.70;4.60;;;;;;;25.26;53.51;99805.63;107611;1259;61629;-70
2023/07/22 11:29:13;;;;;;;7.90;4.90;;;;;;;25.30;53.16;99808.23;107593;1257;60513;-69